sensor_id;sensor_type;location;lat;lon;timestamp;temperature;humidity
16881;DHT22;8557;52.068;5.198;2022-08-02T00:02:24;18.70;1.00
16881;DHT22;8557;52.068;5.198;2022-08-02T00:04:52;18.70;1.00
16881;DHT22;8557;52.068;5.198;2022-08-02T00:07:19;18.60;1.00
16881;DHT22;8557;52.068;5.198;2022-08-02T00:09:46;18.60;1.00
16881;DHT22;8557;52.068;5.198;2022-08-02T00:12:14;18.60;1.00
16881;DHT22;8557;52.068;5.198;2022-08-02T00:14:41;18.60;1.00
16881;DHT22;8557;52.068;5.198;2022-08-02T00:17:08;18.60;1.00
16881;DHT22;8557;52.068;5.198;2022-08-02T00:19:35;18.60;1.00
16881;DHT22;8557;52.068;5.198;2022-08-02T00:22:02;18.50;1.00
16881;DHT22;8557;52.068;5.198;2022-08-02T00:24:29;18.50;1.00
16881;DHT22;8557;52.068;5.198;2022-08-02T00:26:56;18.50;1.00
16881;DHT22;8557;52.068;5.198;2022-08-02T00:29:24;18.50;1.00
16881;DHT22;8557;52.068;5.198;2022-08-02T00:31:51;18.50;1.00
16881;DHT22;8557;52.068;5.198;2022-08-02T00:34:18;18.40;1.00
16881;DHT22;8557;52.068;5.198;2022-08-02T00:36:45;18.40;1.00
16881;DHT22;8557;52.068;5.198;2022-08-02T00:39:11;18.30;1.00
16881;DHT22;8557;52.068;5.198;2022-08-02T00:41:45;18.20;1.00
16881;DHT22;8557;52.068;5.198;2022-08-02T00:44:13;18.20;1.00
16881;DHT22;8557;52.068;5.198;2022-08-02T00:46:42;18.10;1.00
16881;DHT22;8557;52.068;5.198;2022-08-02T00:49:09;18.10;1.00
16881;DHT22;8557;52.068;5.198;2022-08-02T00:51:36;18.00;1.00
16881;DHT22;8557;52.068;5.198;2022-08-02T00:54:03;18.00;1.00
16881;DHT22;8557;52.068;5.198;2022-08-02T00:56:30;18.00;1.00
16881;DHT22;8557;52.068;5.198;2022-08-02T00:58:57;18.00;1.00
16881;DHT22;8557;52.068;5.198;2022-08-02T01:01:24;18.00;1.00
16881;DHT22;8557;52.068;5.198;2022-08-02T01:04:05;18.00;1.00
16881;DHT22;8557;52.068;5.198;2022-08-02T01:06:32;17.90;1.00
16881;DHT22;8557;52.068;5.198;2022-08-02T01:08:59;18.00;1.00
16881;DHT22;8557;52.068;5.198;2022-08-02T01:11:26;18.00;1.00
16881;DHT22;8557;52.068;5.198;2022-08-02T01:13:56;18.00;1.00
16881;DHT22;8557;52.068;5.198;2022-08-02T01:16:27;18.00;1.00
16881;DHT22;8557;52.068;5.198;2022-08-02T01:19:01;18.00;1.00
16881;DHT22;8557;52.068;5.198;2022-08-02T01:21:40;18.00;1.00
16881;DHT22;8557;52.068;5.198;2022-08-02T01:24:20;18.00;1.00
16881;DHT22;8557;52.068;5.198;2022-08-02T01:27:10;18.00;1.00
16881;DHT22;8557;52.068;5.198;2022-08-02T01:29:58;18.00;1.00
16881;DHT22;8557;52.068;5.198;2022-08-02T01:32:30;18.10;1.00
16881;DHT22;8557;52.068;5.198;2022-08-02T01:35:01;18.00;1.00
16881;DHT22;8557;52.068;5.198;2022-08-02T01:37:36;18.00;1.00
16881;DHT22;8557;52.068;5.198;2022-08-02T01:40:08;18.00;1.00
16881;DHT22;8557;52.068;5.198;2022-08-02T01:42:39;18.00;1.00
16881;DHT22;8557;52.068;5.198;2022-08-02T01:45:09;17.90;1.00
16881;DHT22;8557;52.068;5.198;2022-08-02T01:47:39;18.00;1.00
16881;DHT22;8557;52.068;5.198;2022-08-02T01:50:09;18.00;1.00
16881;DHT22;8557;52.068;5.198;2022-08-02T01:52:43;18.00;1.00
16881;DHT22;8557;52.068;5.198;2022-08-02T01:55:15;18.00;1.00
16881;DHT22;8557;52.068;5.198;2022-08-02T01:57:48;18.00;1.00
16881;DHT22;8557;52.068;5.198;2022-08-02T02:00:19;18.10;1.00
16881;DHT22;8557;52.068;5.198;2022-08-02T02:02:49;18.10;1.00
16881;DHT22;8557;52.068;5.198;2022-08-02T02:05:20;18.20;1.00
16881;DHT22;8557;52.068;5.198;2022-08-02T02:07:50;18.20;1.00
16881;DHT22;8557;52.068;5.198;2022-08-02T02:10:23;18.30;1.00
16881;DHT22;8557;52.068;5.198;2022-08-02T02:12:51;18.30;1.00
16881;DHT22;8557;52.068;5.198;2022-08-02T02:15:21;18.20;1.00
16881;DHT22;8557;52.068;5.198;2022-08-02T02:17:51;18.20;1.00
16881;DHT22;8557;52.068;5.198;2022-08-02T02:20:19;18.20;1.00
16881;DHT22;8557;52.068;5.198;2022-08-02T02:22:47;18.20;1.00
16881;DHT22;8557;52.068;5.198;2022-08-02T02:25:15;18.20;1.00
16881;DHT22;8557;52.068;5.198;2022-08-02T02:27:54;18.20;1.00
16881;DHT22;8557;52.068;5.198;2022-08-02T02:30:25;18.20;1.00
16881;DHT22;8557;52.068;5.198;2022-08-02T02:32:55;18.20;1.00
16881;DHT22;8557;52.068;5.198;2022-08-02T02:35:26;18.20;1.00
16881;DHT22;8557;52.068;5.198;2022-08-02T02:37:55;18.20;1.00
16881;DHT22;8557;52.068;5.198;2022-08-02T02:40:26;18.20;1.00
16881;DHT22;8557;52.068;5.198;2022-08-02T02:42:55;18.30;1.00
16881;DHT22;8557;52.068;5.198;2022-08-02T02:45:24;18.30;1.00
16881;DHT22;8557;52.068;5.198;2022-08-02T02:47:52;18.30;1.00
16881;DHT22;8557;52.068;5.198;2022-08-02T02:50:21;18.30;1.00
16881;DHT22;8557;52.068;5.198;2022-08-02T02:52:49;18.30;1.00
16881;DHT22;8557;52.068;5.198;2022-08-02T02:55:17;18.30;1.00
16881;DHT22;8557;52.068;5.198;2022-08-02T02:57:44;18.30;1.00
16881;DHT22;8557;52.068;5.198;2022-08-02T03:00:13;18.30;1.00
16881;DHT22;8557;52.068;5.198;2022-08-02T03:02:43;18.30;1.00
16881;DHT22;8557;52.068;5.198;2022-08-02T03:05:11;18.30;1.00
16881;DHT22;8557;52.068;5.198;2022-08-02T03:07:38;18.30;1.00
16881;DHT22;8557;52.068;5.198;2022-08-02T03:10:06;18.30;1.00
16881;DHT22;8557;52.068;5.198;2022-08-02T03:12:34;18.30;1.00
16881;DHT22;8557;52.068;5.198;2022-08-02T03:15:04;18.30;1.00
16881;DHT22;8557;52.068;5.198;2022-08-02T03:17:40;18.20;1.00
16881;DHT22;8557;52.068;5.198;2022-08-02T03:20:10;18.20;1.00
16881;DHT22;8557;52.068;5.198;2022-08-02T03:22:38;18.30;1.00
16881;DHT22;8557;52.068;5.198;2022-08-02T03:25:06;18.20;1.00
16881;DHT22;8557;52.068;5.198;2022-08-02T03:27:34;18.20;1.00
16881;DHT22;8557;52.068;5.198;2022-08-02T03:30:00;18.20;1.00
16881;DHT22;8557;52.068;5.198;2022-08-02T03:32:27;18.20;1.00
16881;DHT22;8557;52.068;5.198;2022-08-02T03:34:54;18.10;1.00
16881;DHT22;8557;52.068;5.198;2022-08-02T03:37:23;18.10;1.00
16881;DHT22;8557;52.068;5.198;2022-08-02T03:39:50;18.10;1.00
16881;DHT22;8557;52.068;5.198;2022-08-02T03:42:19;18.00;1.00
16881;DHT22;8557;52.068;5.198;2022-08-02T03:44:46;18.00;1.00
16881;DHT22;8557;52.068;5.198;2022-08-02T03:47:13;18.00;1.00
16881;DHT22;8557;52.068;5.198;2022-08-02T03:49:41;17.90;1.00
16881;DHT22;8557;52.068;5.198;2022-08-02T03:52:09;17.90;1.00
16881;DHT22;8557;52.068;5.198;2022-08-02T03:54:38;17.80;3.80
16881;DHT22;8557;52.068;5.198;2022-08-02T03:57:05;17.80;9.90
16881;DHT22;8557;52.068;5.198;2022-08-02T03:59:39;17.80;12.10
16881;DHT22;8557;52.068;5.198;2022-08-02T04:02:07;17.80;14.20
16881;DHT22;8557;52.068;5.198;2022-08-02T04:04:34;17.80;13.50
16881;DHT22;8557;52.068;5.198;2022-08-02T04:07:00;17.70;13.90
16881;DHT22;8557;52.068;5.198;2022-08-02T04:09:27;17.70;14.80
16881;DHT22;8557;52.068;5.198;2022-08-02T04:11:55;17.70;18.00
16881;DHT22;8557;52.068;5.198;2022-08-02T04:14:22;17.60;19.60
16881;DHT22;8557;52.068;5.198;2022-08-02T04:16:52;17.60;22.70
16881;DHT22;8557;52.068;5.198;2022-08-02T04:19:25;17.60;21.80
16881;DHT22;8557;52.068;5.198;2022-08-02T04:21:54;17.60;22.50
16881;DHT22;8557;52.068;5.198;2022-08-02T04:24:25;17.60;21.20
16881;DHT22;8557;52.068;5.198;2022-08-02T04:26:56;17.60;22.70
16881;DHT22;8557;52.068;5.198;2022-08-02T04:29:24;17.60;22.70
16881;DHT22;8557;52.068;5.198;2022-08-02T04:31:53;17.60;21.30
16881;DHT22;8557;52.068;5.198;2022-08-02T04:34:20;17.60;22.40
16881;DHT22;8557;52.068;5.198;2022-08-02T04:36:47;17.60;22.90
16881;DHT22;8557;52.068;5.198;2022-08-02T04:39:14;17.70;31.40
16881;DHT22;8557;52.068;5.198;2022-08-02T04:41:42;17.80;40.20
16881;DHT22;8557;52.068;5.198;2022-08-02T04:44:10;18.00;32.50
16881;DHT22;8557;52.068;5.198;2022-08-02T04:46:37;18.00;27.80
16881;DHT22;8557;52.068;5.198;2022-08-02T04:49:04;18.20;21.80
16881;DHT22;8557;52.068;5.198;2022-08-02T04:51:33;18.20;16.40
16881;DHT22;8557;52.068;5.198;2022-08-02T04:54:00;18.30;10.20
16881;DHT22;8557;52.068;5.198;2022-08-02T04:56:27;18.20;1.00
16881;DHT22;8557;52.068;5.198;2022-08-02T04:58:53;18.30;1.00
16881;DHT22;8557;52.068;5.198;2022-08-02T05:01:21;18.20;1.00
16881;DHT22;8557;52.068;5.198;2022-08-02T05:03:48;18.20;7.70
16881;DHT22;8557;52.068;5.198;2022-08-02T05:06:15;18.30;12.90
16881;DHT22;8557;52.068;5.198;2022-08-02T05:08:44;18.40;4.10
16881;DHT22;8557;52.068;5.198;2022-08-02T05:11:11;18.50;2.80
16881;DHT22;8557;52.068;5.198;2022-08-02T05:13:39;18.50;1.00
16881;DHT22;8557;52.068;5.198;2022-08-02T05:16:06;18.50;1.00
16881;DHT22;8557;52.068;5.198;2022-08-02T05:18:34;18.60;1.00
16881;DHT22;8557;52.068;5.198;2022-08-02T05:21:01;18.70;1.00
16881;DHT22;8557;52.068;5.198;2022-08-02T05:23:27;18.70;1.00
16881;DHT22;8557;52.068;5.198;2022-08-02T05:25:54;18.60;1.00
16881;DHT22;8557;52.068;5.198;2022-08-02T05:28:21;18.70;1.00
16881;DHT22;8557;52.068;5.198;2022-08-02T05:30:48;18.70;1.00
16881;DHT22;8557;52.068;5.198;2022-08-02T05:33:14;18.60;1.00
16881;DHT22;8557;52.068;5.198;2022-08-02T05:35:43;18.50;1.00
16881;DHT22;8557;52.068;5.198;2022-08-02T05:38:09;18.50;1.00
16881;DHT22;8557;52.068;5.198;2022-08-02T05:40:36;18.60;1.00
16881;DHT22;8557;52.068;5.198;2022-08-02T05:43:10;18.50;1.00
16881;DHT22;8557;52.068;5.198;2022-08-02T05:45:37;18.50;1.00
16881;DHT22;8557;52.068;5.198;2022-08-02T05:48:04;18.50;1.00
16881;DHT22;8557;52.068;5.198;2022-08-02T05:50:31;18.50;1.00
16881;DHT22;8557;52.068;5.198;2022-08-02T05:53:03;18.60;1.00
16881;DHT22;8557;52.068;5.198;2022-08-02T05:55:34;18.60;1.00
16881;DHT22;8557;52.068;5.198;2022-08-02T05:58:08;18.70;1.00
16881;DHT22;8557;52.068;5.198;2022-08-02T06:00:39;18.70;1.00
16881;DHT22;8557;52.068;5.198;2022-08-02T06:03:14;18.70;1.00
16881;DHT22;8557;52.068;5.198;2022-08-02T06:05:50;18.70;1.00
16881;DHT22;8557;52.068;5.198;2022-08-02T06:08:24;18.70;1.00
16881;DHT22;8557;52.068;5.198;2022-08-02T06:10:55;18.60;1.00
16881;DHT22;8557;52.068;5.198;2022-08-02T06:13:22;18.60;2.70
16881;DHT22;8557;52.068;5.198;2022-08-02T06:15:51;18.60;11.40
16881;DHT22;8557;52.068;5.198;2022-08-02T06:18:20;18.60;14.20
16881;DHT22;8557;52.068;5.198;2022-08-02T06:20:49;18.60;17.90
16881;DHT22;8557;52.068;5.198;2022-08-02T06:23:16;18.70;19.60
16881;DHT22;8557;52.068;5.198;2022-08-02T06:25:49;18.80;19.40
16881;DHT22;8557;52.068;5.198;2022-08-02T06:28:18;18.90;18.70
16881;DHT22;8557;52.068;5.198;2022-08-02T06:30:45;19.00;15.80
16881;DHT22;8557;52.068;5.198;2022-08-02T06:33:12;19.10;13.80
16881;DHT22;8557;52.068;5.198;2022-08-02T06:35:44;19.20;10.70
16881;DHT22;8557;52.068;5.198;2022-08-02T06:38:16;19.30;8.00
16881;DHT22;8557;52.068;5.198;2022-08-02T06:40:47;19.40;5.30
16881;DHT22;8557;52.068;5.198;2022-08-02T06:43:18;19.60;1.00
16881;DHT22;8557;52.068;5.198;2022-08-02T06:45:48;19.70;1.00
16881;DHT22;8557;52.068;5.198;2022-08-02T06:48:15;19.70;1.00
16881;DHT22;8557;52.068;5.198;2022-08-02T06:50:42;19.80;1.00
16881;DHT22;8557;52.068;5.198;2022-08-02T06:53:09;19.80;1.00
16881;DHT22;8557;52.068;5.198;2022-08-02T06:55:37;19.90;1.00
16881;DHT22;8557;52.068;5.198;2022-08-02T06:58:05;20.00;1.00
16881;DHT22;8557;52.068;5.198;2022-08-02T07:00:32;20.10;1.00
16881;DHT22;8557;52.068;5.198;2022-08-02T07:02:58;20.20;1.00
16881;DHT22;8557;52.068;5.198;2022-08-02T07:05:25;20.20;1.00
16881;DHT22;8557;52.068;5.198;2022-08-02T07:07:52;20.20;1.00
16881;DHT22;8557;52.068;5.198;2022-08-02T07:10:19;20.30;3.10
16881;DHT22;8557;52.068;5.198;2022-08-02T07:12:46;20.30;1.30
16881;DHT22;8557;52.068;5.198;2022-08-02T07:15:14;20.40;10.90
16881;DHT22;8557;52.068;5.198;2022-08-02T07:17:40;20.40;11.30
16881;DHT22;8557;52.068;5.198;2022-08-02T07:20:08;20.50;9.10
16881;DHT22;8557;52.068;5.198;2022-08-02T07:22:35;20.50;15.10
16881;DHT22;8557;52.068;5.198;2022-08-02T07:25:02;20.60;15.00
16881;DHT22;8557;52.068;5.198;2022-08-02T07:27:29;20.60;19.60
16881;DHT22;8557;52.068;5.198;2022-08-02T07:29:56;20.70;22.60
16881;DHT22;8557;52.068;5.198;2022-08-02T07:32:26;20.70;27.00
16881;DHT22;8557;52.068;5.198;2022-08-02T07:34:54;20.70;20.80
16881;DHT22;8557;52.068;5.198;2022-08-02T07:37:24;20.80;21.50
16881;DHT22;8557;52.068;5.198;2022-08-02T07:39:51;20.90;31.20
16881;DHT22;8557;52.068;5.198;2022-08-02T07:42:17;21.00;25.00
16881;DHT22;8557;52.068;5.198;2022-08-02T07:44:44;21.00;31.60
16881;DHT22;8557;52.068;5.198;2022-08-02T07:47:11;21.10;28.60
16881;DHT22;8557;52.068;5.198;2022-08-02T07:49:40;21.20;33.80
16881;DHT22;8557;52.068;5.198;2022-08-02T07:52:07;21.20;29.00
16881;DHT22;8557;52.068;5.198;2022-08-02T07:54:34;21.30;34.60
16881;DHT22;8557;52.068;5.198;2022-08-02T07:57:00;21.30;36.00
16881;DHT22;8557;52.068;5.198;2022-08-02T07:59:27;21.40;40.60
16881;DHT22;8557;52.068;5.198;2022-08-02T08:01:54;21.50;41.60
16881;DHT22;8557;52.068;5.198;2022-08-02T08:04:21;21.60;47.60
16881;DHT22;8557;52.068;5.198;2022-08-02T08:06:49;21.60;38.70
16881;DHT22;8557;52.068;5.198;2022-08-02T08:09:18;21.60;30.50
16881;DHT22;8557;52.068;5.198;2022-08-02T08:11:45;21.70;27.70
16881;DHT22;8557;52.068;5.198;2022-08-02T08:14:12;21.70;32.90
16881;DHT22;8557;52.068;5.198;2022-08-02T08:16:39;21.80;30.30
16881;DHT22;8557;52.068;5.198;2022-08-02T08:19:06;21.80;30.70
16881;DHT22;8557;52.068;5.198;2022-08-02T08:21:32;21.90;31.60
16881;DHT22;8557;52.068;5.198;2022-08-02T08:24:01;22.00;28.10
16881;DHT22;8557;52.068;5.198;2022-08-02T08:26:29;22.10;27.30
16881;DHT22;8557;52.068;5.198;2022-08-02T08:28:55;22.10;23.70
16881;DHT22;8557;52.068;5.198;2022-08-02T08:31:22;22.20;22.10
16881;DHT22;8557;52.068;5.198;2022-08-02T08:33:49;22.30;18.70
16881;DHT22;8557;52.068;5.198;2022-08-02T08:36:15;22.40;17.50
16881;DHT22;8557;52.068;5.198;2022-08-02T08:38:42;22.50;12.80
16881;DHT22;8557;52.068;5.198;2022-08-02T08:41:10;22.60;10.40
16881;DHT22;8557;52.068;5.198;2022-08-02T08:43:37;22.60;2.80
16881;DHT22;8557;52.068;5.198;2022-08-02T08:46:04;22.70;1.00
16881;DHT22;8557;52.068;5.198;2022-08-02T08:48:32;22.70;1.00
16881;DHT22;8557;52.068;5.198;2022-08-02T08:51:06;22.70;1.00
16881;DHT22;8557;52.068;5.198;2022-08-02T08:53:39;22.70;1.00
16881;DHT22;8557;52.068;5.198;2022-08-02T08:56:06;22.80;1.00
16881;DHT22;8557;52.068;5.198;2022-08-02T08:58:37;22.80;1.00
16881;DHT22;8557;52.068;5.198;2022-08-02T09:01:04;22.90;1.20
16881;DHT22;8557;52.068;5.198;2022-08-02T09:03:31;22.90;3.60
16881;DHT22;8557;52.068;5.198;2022-08-02T09:05:58;23.00;1.00
16881;DHT22;8557;52.068;5.198;2022-08-02T09:08:25;23.00;2.30
16881;DHT22;8557;52.068;5.198;2022-08-02T09:10:52;23.10;2.40
16881;DHT22;8557;52.068;5.198;2022-08-02T09:13:21;23.10;1.60
16881;DHT22;8557;52.068;5.198;2022-08-02T09:15:55;23.20;6.90
16881;DHT22;8557;52.068;5.198;2022-08-02T09:18:28;23.30;3.80
16881;DHT22;8557;52.068;5.198;2022-08-02T09:20:57;23.40;4.50
16881;DHT22;8557;52.068;5.198;2022-08-02T09:23:25;23.50;3.30
16881;DHT22;8557;52.068;5.198;2022-08-02T09:26:00;23.60;2.90
16881;DHT22;8557;52.068;5.198;2022-08-02T09:28:28;23.70;1.00
16881;DHT22;8557;52.068;5.198;2022-08-02T09:31:08;23.70;1.00
16881;DHT22;8557;52.068;5.198;2022-08-02T09:33:36;23.70;1.00
16881;DHT22;8557;52.068;5.198;2022-08-02T09:36:04;23.80;1.00
16881;DHT22;8557;52.068;5.198;2022-08-02T09:38:32;23.90;1.00
16881;DHT22;8557;52.068;5.198;2022-08-02T09:40:59;23.90;1.00
16881;DHT22;8557;52.068;5.198;2022-08-02T09:43:37;24.00;1.00
16881;DHT22;8557;52.068;5.198;2022-08-02T09:46:14;24.10;1.00
16881;DHT22;8557;52.068;5.198;2022-08-02T09:48:48;24.20;1.00
16881;DHT22;8557;52.068;5.198;2022-08-02T09:51:20;24.30;1.00
16881;DHT22;8557;52.068;5.198;2022-08-02T09:53:49;24.50;1.00
16881;DHT22;8557;52.068;5.198;2022-08-02T09:56:17;24.60;1.00
16881;DHT22;8557;52.068;5.198;2022-08-02T09:58:44;24.60;1.00
16881;DHT22;8557;52.068;5.198;2022-08-02T10:01:13;24.70;1.00
16881;DHT22;8557;52.068;5.198;2022-08-02T10:04:02;24.90;1.00
16881;DHT22;8557;52.068;5.198;2022-08-02T10:06:29;25.00;1.00
16881;DHT22;8557;52.068;5.198;2022-08-02T10:08:57;25.10;1.00
16881;DHT22;8557;52.068;5.198;2022-08-02T10:11:26;25.20;1.00
16881;DHT22;8557;52.068;5.198;2022-08-02T10:13:53;25.10;1.00
16881;DHT22;8557;52.068;5.198;2022-08-02T10:16:23;25.10;1.00
16881;DHT22;8557;52.068;5.198;2022-08-02T10:18:50;25.20;1.00
16881;DHT22;8557;52.068;5.198;2022-08-02T10:21:22;25.20;1.00
16881;DHT22;8557;52.068;5.198;2022-08-02T10:23:59;25.20;1.00
16881;DHT22;8557;52.068;5.198;2022-08-02T10:26:31;25.20;1.00
16881;DHT22;8557;52.068;5.198;2022-08-02T10:28:59;25.30;1.00
16881;DHT22;8557;52.068;5.198;2022-08-02T10:31:33;25.40;1.00
16881;DHT22;8557;52.068;5.198;2022-08-02T10:34:02;25.50;1.00
16881;DHT22;8557;52.068;5.198;2022-08-02T10:36:33;25.60;1.00
16881;DHT22;8557;52.068;5.198;2022-08-02T10:39:02;25.70;1.00
16881;DHT22;8557;52.068;5.198;2022-08-02T10:41:43;25.70;1.00
16881;DHT22;8557;52.068;5.198;2022-08-02T10:44:24;25.80;1.00
16881;DHT22;8557;52.068;5.198;2022-08-02T10:49:59;25.80;1.00
16881;DHT22;8557;52.068;5.198;2022-08-02T10:52:29;25.70;1.00
16881;DHT22;8557;52.068;5.198;2022-08-02T10:54:57;25.80;1.00
16881;DHT22;8557;52.068;5.198;2022-08-02T10:57:25;25.80;1.00
16881;DHT22;8557;52.068;5.198;2022-08-02T10:59:56;25.80;1.00
16881;DHT22;8557;52.068;5.198;2022-08-02T11:02:37;25.70;1.00
16881;DHT22;8557;52.068;5.198;2022-08-02T11:05:08;25.80;1.00
16881;DHT22;8557;52.068;5.198;2022-08-02T11:07:37;25.80;1.00
16881;DHT22;8557;52.068;5.198;2022-08-02T11:10:30;25.90;1.00
16881;DHT22;8557;52.068;5.198;2022-08-02T11:12:59;26.00;1.00
16881;DHT22;8557;52.068;5.198;2022-08-02T11:15:27;26.10;1.00
16881;DHT22;8557;52.068;5.198;2022-08-02T11:17:55;26.10;1.00
16881;DHT22;8557;52.068;5.198;2022-08-02T11:20:25;26.20;1.00
16881;DHT22;8557;52.068;5.198;2022-08-02T11:22:53;26.30;1.00
16881;DHT22;8557;52.068;5.198;2022-08-02T11:25:32;26.30;1.00
16881;DHT22;8557;52.068;5.198;2022-08-02T11:28:08;26.30;1.00
16881;DHT22;8557;52.068;5.198;2022-08-02T11:30:36;26.40;1.00
16881;DHT22;8557;52.068;5.198;2022-08-02T11:33:03;26.40;1.00
16881;DHT22;8557;52.068;5.198;2022-08-02T11:35:33;26.50;1.00
16881;DHT22;8557;52.068;5.198;2022-08-02T11:38:15;26.50;1.00
16881;DHT22;8557;52.068;5.198;2022-08-02T11:40:42;26.60;1.00
16881;DHT22;8557;52.068;5.198;2022-08-02T11:43:17;26.70;1.00
16881;DHT22;8557;52.068;5.198;2022-08-02T11:45:44;26.80;1.00
16881;DHT22;8557;52.068;5.198;2022-08-02T11:48:11;26.80;1.00
16881;DHT22;8557;52.068;5.198;2022-08-02T11:50:39;26.90;1.00
16881;DHT22;8557;52.068;5.198;2022-08-02T11:53:13;27.10;1.00
16881;DHT22;8557;52.068;5.198;2022-08-02T11:55:40;27.30;1.00
16881;DHT22;8557;52.068;5.198;2022-08-02T11:58:08;27.40;1.00
16881;DHT22;8557;52.068;5.198;2022-08-02T12:00:36;27.50;1.00
16881;DHT22;8557;52.068;5.198;2022-08-02T12:03:04;27.50;1.00
16881;DHT22;8557;52.068;5.198;2022-08-02T12:05:32;27.60;1.00
16881;DHT22;8557;52.068;5.198;2022-08-02T12:08:00;27.70;1.00
16881;DHT22;8557;52.068;5.198;2022-08-02T12:10:31;27.70;1.00
16881;DHT22;8557;52.068;5.198;2022-08-02T12:12:59;27.80;1.00
16881;DHT22;8557;52.068;5.198;2022-08-02T12:15:30;28.00;1.00
16881;DHT22;8557;52.068;5.198;2022-08-02T12:17:58;28.00;1.00
16881;DHT22;8557;52.068;5.198;2022-08-02T12:20:43;28.10;1.00
16881;DHT22;8557;52.068;5.198;2022-08-02T12:23:12;28.10;1.00
16881;DHT22;8557;52.068;5.198;2022-08-02T12:25:39;28.20;1.00
16881;DHT22;8557;52.068;5.198;2022-08-02T12:28:13;28.30;1.00
16881;DHT22;8557;52.068;5.198;2022-08-02T12:30:48;28.30;1.00
16881;DHT22;8557;52.068;5.198;2022-08-02T12:33:15;28.30;1.00
16881;DHT22;8557;52.068;5.198;2022-08-02T12:35:42;28.30;1.00
16881;DHT22;8557;52.068;5.198;2022-08-02T12:38:10;28.20;1.00
16881;DHT22;8557;52.068;5.198;2022-08-02T12:40:38;28.30;1.00
16881;DHT22;8557;52.068;5.198;2022-08-02T12:43:07;28.30;1.00
16881;DHT22;8557;52.068;5.198;2022-08-02T12:45:45;28.30;1.00
16881;DHT22;8557;52.068;5.198;2022-08-02T12:48:12;28.30;1.00
16881;DHT22;8557;52.068;5.198;2022-08-02T12:50:39;28.60;1.00
16881;DHT22;8557;52.068;5.198;2022-08-02T12:53:08;28.90;1.00
16881;DHT22;8557;52.068;5.198;2022-08-02T12:55:36;29.30;1.00
16881;DHT22;8557;52.068;5.198;2022-08-02T12:58:07;29.70;1.00
16881;DHT22;8557;52.068;5.198;2022-08-02T13:00:35;30.10;99.90
16881;DHT22;8557;52.068;5.198;2022-08-02T13:03:03;30.40;99.90
16881;DHT22;8557;52.068;5.198;2022-08-02T13:05:33;30.60;99.90
16881;DHT22;8557;52.068;5.198;2022-08-02T13:08:01;30.70;99.90
16881;DHT22;8557;52.068;5.198;2022-08-02T13:10:29;31.10;99.90
16881;DHT22;8557;52.068;5.198;2022-08-02T13:12:56;31.40;99.90
16881;DHT22;8557;52.068;5.198;2022-08-02T13:15:24;31.60;99.90
16881;DHT22;8557;52.068;5.198;2022-08-02T13:17:50;31.80;99.90
16881;DHT22;8557;52.068;5.198;2022-08-02T13:20:17;32.20;99.90
16881;DHT22;8557;52.068;5.198;2022-08-02T13:22:44;32.50;99.90
16881;DHT22;8557;52.068;5.198;2022-08-02T13:25:11;32.70;62.10
16881;DHT22;8557;52.068;5.198;2022-08-02T13:27:38;32.70;1.00
16881;DHT22;8557;52.068;5.198;2022-08-02T13:30:06;32.90;77.50
16881;DHT22;8557;52.068;5.198;2022-08-02T13:32:34;33.30;30.60
16881;DHT22;8557;52.068;5.198;2022-08-02T13:35:01;33.50;20.90
16881;DHT22;8557;52.068;5.198;2022-08-02T13:37:28;33.80;1.00
16881;DHT22;8557;52.068;5.198;2022-08-02T13:39:54;34.00;1.00
16881;DHT22;8557;52.068;5.198;2022-08-02T13:42:21;34.20;1.00
16881;DHT22;8557;52.068;5.198;2022-08-02T13:44:48;34.40;1.00
16881;DHT22;8557;52.068;5.198;2022-08-02T13:47:15;34.50;1.00
16881;DHT22;8557;52.068;5.198;2022-08-02T13:49:43;34.40;1.00
16881;DHT22;8557;52.068;5.198;2022-08-02T13:52:10;34.30;1.00
16881;DHT22;8557;52.068;5.198;2022-08-02T13:54:37;34.30;1.00
16881;DHT22;8557;52.068;5.198;2022-08-02T13:57:03;34.00;1.00
16881;DHT22;8557;52.068;5.198;2022-08-02T13:59:30;33.80;1.00
16881;DHT22;8557;52.068;5.198;2022-08-02T14:01:57;33.60;1.00
16881;DHT22;8557;52.068;5.198;2022-08-02T14:04:24;33.80;1.00
16881;DHT22;8557;52.068;5.198;2022-08-02T14:06:53;34.10;1.00
16881;DHT22;8557;52.068;5.198;2022-08-02T14:09:19;34.60;1.00
16881;DHT22;8557;52.068;5.198;2022-08-02T14:11:46;35.00;1.00
16881;DHT22;8557;52.068;5.198;2022-08-02T14:14:13;35.30;1.00
16881;DHT22;8557;52.068;5.198;2022-08-02T14:16:40;35.30;1.00
16881;DHT22;8557;52.068;5.198;2022-08-02T14:19:07;35.50;1.00
16881;DHT22;8557;52.068;5.198;2022-08-02T14:21:34;35.80;1.00
16881;DHT22;8557;52.068;5.198;2022-08-02T14:24:03;36.00;1.00
16881;DHT22;8557;52.068;5.198;2022-08-02T14:26:30;36.00;1.00
16881;DHT22;8557;52.068;5.198;2022-08-02T14:28:56;36.10;1.00
16881;DHT22;8557;52.068;5.198;2022-08-02T14:31:23;36.20;1.00
16881;DHT22;8557;52.068;5.198;2022-08-02T14:33:50;36.40;99.90
16881;DHT22;8557;52.068;5.198;2022-08-02T14:36:16;36.50;99.90
16881;DHT22;8557;52.068;5.198;2022-08-02T14:38:43;36.60;99.90
16881;DHT22;8557;52.068;5.198;2022-08-02T14:41:11;36.70;1.00
16881;DHT22;8557;52.068;5.198;2022-08-02T14:43:38;36.80;1.00
16881;DHT22;8557;52.068;5.198;2022-08-02T14:46:22;36.90;1.00
16881;DHT22;8557;52.068;5.198;2022-08-02T14:48:49;37.10;1.00
16881;DHT22;8557;52.068;5.198;2022-08-02T14:51:16;37.20;1.00
16881;DHT22;8557;52.068;5.198;2022-08-02T14:53:43;37.40;1.00
16881;DHT22;8557;52.068;5.198;2022-08-02T14:56:11;37.20;1.00
16881;DHT22;8557;52.068;5.198;2022-08-02T14:58:37;37.30;99.90
16881;DHT22;8557;52.068;5.198;2022-08-02T15:01:04;37.50;99.90
16881;DHT22;8557;52.068;5.198;2022-08-02T15:03:31;37.70;99.90
16881;DHT22;8557;52.068;5.198;2022-08-02T15:05:58;37.90;99.90
16881;DHT22;8557;52.068;5.198;2022-08-02T15:08:25;37.80;99.90
16881;DHT22;8557;52.068;5.198;2022-08-02T15:10:52;37.80;99.90
16881;DHT22;8557;52.068;5.198;2022-08-02T15:13:20;37.80;41.80
16881;DHT22;8557;52.068;5.198;2022-08-02T15:15:47;37.70;58.20
16881;DHT22;8557;52.068;5.198;2022-08-02T15:18:13;37.70;18.10
16881;DHT22;8557;52.068;5.198;2022-08-02T15:20:40;37.90;1.00
16881;DHT22;8557;52.068;5.198;2022-08-02T15:23:07;37.80;7.60
16881;DHT22;8557;52.068;5.198;2022-08-02T15:25:34;37.80;1.00
16881;DHT22;8557;52.068;5.198;2022-08-02T15:28:01;37.90;1.00
16881;DHT22;8557;52.068;5.198;2022-08-02T15:30:32;37.90;1.00
16881;DHT22;8557;52.068;5.198;2022-08-02T15:32:59;38.20;77.90
16881;DHT22;8557;52.068;5.198;2022-08-02T15:35:26;38.10;1.00
16881;DHT22;8557;52.068;5.198;2022-08-02T15:37:53;38.10;1.00
16881;DHT22;8557;52.068;5.198;2022-08-02T15:40:20;38.20;1.00
16881;DHT22;8557;52.068;5.198;2022-08-02T15:42:47;38.50;1.00
16881;DHT22;8557;52.068;5.198;2022-08-02T15:45:14;38.60;1.00
16881;DHT22;8557;52.068;5.198;2022-08-02T15:47:42;38.10;1.00
16881;DHT22;8557;52.068;5.198;2022-08-02T15:50:09;38.10;1.00
16881;DHT22;8557;52.068;5.198;2022-08-02T15:52:36;38.20;1.00
16881;DHT22;8557;52.068;5.198;2022-08-02T15:55:03;38.30;1.00
16881;DHT22;8557;52.068;5.198;2022-08-02T15:57:30;37.80;1.00
16881;DHT22;8557;52.068;5.198;2022-08-02T15:59:57;37.20;1.00
16881;DHT22;8557;52.068;5.198;2022-08-02T16:02:24;36.50;1.00
16881;DHT22;8557;52.068;5.198;2022-08-02T16:04:54;36.20;1.00
16881;DHT22;8557;52.068;5.198;2022-08-02T16:07:21;36.40;1.00
16881;DHT22;8557;52.068;5.198;2022-08-02T16:09:48;36.50;1.00
16881;DHT22;8557;52.068;5.198;2022-08-02T16:12:14;36.70;1.00